sensor_id;sensor_type;location;lat;lon;timestamp;P1;durP1;ratioP1;P2;durP2;ratioP2
25049;SDS011;13046;49.814;9.918;2022-10-24T00:01:33;14.88;;;6.68;;
25049;SDS011;13046;49.814;9.918;2022-10-24T00:03:59;14.90;;;9.65;;
25049;SDS011;13046;49.814;9.918;2022-10-24T00:06:25;19.52;;;10.05;;
25049;SDS011;13046;49.814;9.918;2022-10-24T00:08:51;8.52;;;6.47;;
25049;SDS011;13046;49.814;9.918;2022-10-24T00:11:19;13.02;;;7.05;;
25049;SDS011;13046;49.814;9.918;2022-10-24T00:13:46;10.52;;;5.85;;
25049;SDS011;13046;49.814;9.918;2022-10-24T00:16:12;7.80;;;4.80;;
25049;SDS011;13046;49.814;9.918;2022-10-24T00:18:38;11.75;;;5.32;;
25049;SDS011;13046;49.814;9.918;2022-10-24T00:21:05;15.73;;;5.35;;
25049;SDS011;13046;49.814;9.918;2022-10-24T00:23:31;11.70;;;5.43;;
25049;SDS011;13046;49.814;9.918;2022-10-24T00:25:57;17.73;;;5.63;;
25049;SDS011;13046;49.814;9.918;2022-10-24T00:28:26;13.98;;;4.75;;
25049;SDS011;13046;49.814;9.918;2022-10-24T00:30:52;9.27;;;4.55;;
25049;SDS011;13046;49.814;9.918;2022-10-24T00:33:18;11.68;;;5.68;;
25049;SDS011;13046;49.814;9.918;2022-10-24T00:35:45;6.88;;;4.57;;
25049;SDS011;13046;49.814;9.918;2022-10-24T00:38:11;12.07;;;4.97;;
25049;SDS011;13046;49.814;9.918;2022-10-24T00:40:37;14.38;;;6.00;;
25049;SDS011;13046;49.814;9.918;2022-10-24T00:43:03;14.85;;;5.35;;
25049;SDS011;13046;49.814;9.918;2022-10-24T00:45:36;9.80;;;5.97;;
25049;SDS011;13046;49.814;9.918;2022-10-24T00:48:06;12.23;;;4.60;;
25049;SDS011;13046;49.814;9.918;2022-10-24T00:50:35;17.48;;;6.90;;
25049;SDS011;13046;49.814;9.918;2022-10-24T00:53:01;19.17;;;5.15;;
25049;SDS011;13046;49.814;9.918;2022-10-24T00:55:27;13.57;;;5.47;;
25049;SDS011;13046;49.814;9.918;2022-10-24T00:57:53;8.77;;;4.88;;
25049;SDS011;13046;49.814;9.918;2022-10-24T01:00:27;12.00;;;5.78;;
25049;SDS011;13046;49.814;9.918;2022-10-24T01:02:53;17.38;;;5.18;;
25049;SDS011;13046;49.814;9.918;2022-10-24T01:05:19;13.40;;;5.20;;
25049;SDS011;13046;49.814;9.918;2022-10-24T01:07:51;11.88;;;5.18;;
25049;SDS011;13046;49.814;9.918;2022-10-24T01:10:30;11.40;;;5.57;;
25049;SDS011;13046;49.814;9.918;2022-10-24T01:15:28;9.07;;;5.50;;
25049;SDS011;13046;49.814;9.918;2022-10-24T01:18:06;10.57;;;5.20;;
25049;SDS011;13046;49.814;9.918;2022-10-24T01:20:38;15.20;;;6.00;;
25049;SDS011;13046;49.814;9.918;2022-10-24T01:28:13;8.40;;;4.63;;
25049;SDS011;13046;49.814;9.918;2022-10-24T01:30:44;12.35;;;6.00;;
25049;SDS011;13046;49.814;9.918;2022-10-24T01:33:20;8.30;;;4.78;;
25049;SDS011;13046;49.814;9.918;2022-10-24T01:35:52;13.90;;;4.95;;
25049;SDS011;13046;49.814;9.918;2022-10-24T01:43:13;10.95;;;5.28;;
25049;SDS011;13046;49.814;9.918;2022-10-24T01:45:42;7.38;;;4.60;;
25049;SDS011;13046;49.814;9.918;2022-10-24T01:48:11;10.48;;;4.65;;
25049;SDS011;13046;49.814;9.918;2022-10-24T01:50:39;11.98;;;5.13;;
25049;SDS011;13046;49.814;9.918;2022-10-24T01:53:05;11.60;;;4.65;;
25049;SDS011;13046;49.814;9.918;2022-10-24T01:55:32;10.00;;;5.45;;
25049;SDS011;13046;49.814;9.918;2022-10-24T01:57:58;10.98;;;5.07;;
25049;SDS011;13046;49.814;9.918;2022-10-24T02:00:24;14.10;;;5.47;;
25049;SDS011;13046;49.814;9.918;2022-10-24T02:02:52;12.20;;;5.13;;
25049;SDS011;13046;49.814;9.918;2022-10-24T02:08:18;8.98;;;4.88;;
25049;SDS011;13046;49.814;9.918;2022-10-24T02:10:48;14.02;;;6.07;;
25049;SDS011;13046;49.814;9.918;2022-10-24T02:13:22;13.98;;;6.30;;
25049;SDS011;13046;49.814;9.918;2022-10-24T02:15:50;8.13;;;4.70;;
25049;SDS011;13046;49.814;9.918;2022-10-24T02:18:18;10.48;;;6.03;;
25049;SDS011;13046;49.814;9.918;2022-10-24T02:20:57;9.30;;;5.20;;
25049;SDS011;13046;49.814;9.918;2022-10-24T02:26:00;15.13;;;7.28;;
25049;SDS011;13046;49.814;9.918;2022-10-24T02:28:31;14.40;;;5.60;;
25049;SDS011;13046;49.814;9.918;2022-10-24T02:31:00;12.77;;;6.43;;
25049;SDS011;13046;49.814;9.918;2022-10-24T02:33:27;11.13;;;6.57;;
25049;SDS011;13046;49.814;9.918;2022-10-24T02:35:54;18.08;;;6.50;;
25049;SDS011;13046;49.814;9.918;2022-10-24T02:38:22;11.80;;;5.97;;
25049;SDS011;13046;49.814;9.918;2022-10-24T02:40:50;10.10;;;5.70;;
25049;SDS011;13046;49.814;9.918;2022-10-24T02:43:17;11.88;;;5.80;;
25049;SDS011;13046;49.814;9.918;2022-10-24T02:45:44;14.20;;;6.43;;
25049;SDS011;13046;49.814;9.918;2022-10-24T02:48:11;13.15;;;6.45;;
25049;SDS011;13046;49.814;9.918;2022-10-24T02:50:39;11.02;;;5.70;;
25049;SDS011;13046;49.814;9.918;2022-10-24T02:53:08;10.63;;;5.78;;
25049;SDS011;13046;49.814;9.918;2022-10-24T02:55:34;12.93;;;6.00;;
25049;SDS011;13046;49.814;9.918;2022-10-24T02:58:00;8.77;;;5.75;;
25049;SDS011;13046;49.814;9.918;2022-10-24T03:00:26;16.67;;;5.65;;
25049;SDS011;13046;49.814;9.918;2022-10-24T03:02:52;11.10;;;7.28;;
25049;SDS011;13046;49.814;9.918;2022-10-24T03:05:18;13.60;;;7.10;;
25049;SDS011;13046;49.814;9.918;2022-10-24T03:07:44;15.60;;;5.80;;
25049;SDS011;13046;49.814;9.918;2022-10-24T03:10:10;12.55;;;5.78;;
25049;SDS011;13046;49.814;9.918;2022-10-24T03:12:36;10.73;;;6.47;;
25049;SDS011;13046;49.814;9.918;2022-10-24T03:15:03;9.75;;;5.97;;
25049;SDS011;13046;49.814;9.918;2022-10-24T03:17:29;12.00;;;5.68;;
25049;SDS011;13046;49.814;9.918;2022-10-24T03:19:55;10.15;;;5.47;;
25049;SDS011;13046;49.814;9.918;2022-10-24T03:22:21;18.83;;;7.63;;
25049;SDS011;13046;49.814;9.918;2022-10-24T03:24:47;16.50;;;7.82;;
25049;SDS011;13046;49.814;9.918;2022-10-24T03:27:14;11.02;;;5.50;;
25049;SDS011;13046;49.814;9.918;2022-10-24T03:29:40;10.10;;;5.20;;
25049;SDS011;13046;49.814;9.918;2022-10-24T03:32:06;16.52;;;5.13;;
25049;SDS011;13046;49.814;9.918;2022-10-24T03:34:32;9.98;;;5.63;;
25049;SDS011;13046;49.814;9.918;2022-10-24T03:36:58;7.85;;;4.88;;
25049;SDS011;13046;49.814;9.918;2022-10-24T03:39:24;10.10;;;5.93;;
25049;SDS011;13046;49.814;9.918;2022-10-24T03:41:50;12.10;;;6.25;;
25049;SDS011;13046;49.814;9.918;2022-10-24T03:44:16;12.93;;;6.43;;
25049;SDS011;13046;49.814;9.918;2022-10-24T03:46:42;5.82;;;5.25;;
25049;SDS011;13046;49.814;9.918;2022-10-24T03:49:08;15.23;;;5.13;;
25049;SDS011;13046;49.814;9.918;2022-10-24T03:51:34;9.90;;;4.50;;
25049;SDS011;13046;49.814;9.918;2022-10-24T03:54:00;8.98;;;5.20;;
25049;SDS011;13046;49.814;9.918;2022-10-24T03:56:26;8.10;;;5.35;;
25049;SDS011;13046;49.814;9.918;2022-10-24T03:58:52;8.52;;;4.60;;
25049;SDS011;13046;49.814;9.918;2022-10-24T04:01:18;10.13;;;4.57;;
25049;SDS011;13046;49.814;9.918;2022-10-24T04:03:44;7.60;;;5.20;;
25049;SDS011;13046;49.814;9.918;2022-10-24T04:06:11;7.78;;;4.72;;
25049;SDS011;13046;49.814;9.918;2022-10-24T04:08:37;7.07;;;4.13;;
25049;SDS011;13046;49.814;9.918;2022-10-24T04:11:04;8.85;;;5.28;;
25049;SDS011;13046;49.814;9.918;2022-10-24T04:13:30;8.65;;;5.65;;
25049;SDS011;13046;49.814;9.918;2022-10-24T04:15:56;6.55;;;4.80;;
25049;SDS011;13046;49.814;9.918;2022-10-24T04:18:22;8.02;;;4.25;;
25049;SDS011;13046;49.814;9.918;2022-10-24T04:20:49;10.23;;;4.47;;
25049;SDS011;13046;49.814;9.918;2022-10-24T04:23:15;10.05;;;5.00;;
25049;SDS011;13046;49.814;9.918;2022-10-24T04:25:42;12.27;;;6.07;;
25049;SDS011;13046;49.814;9.918;2022-10-24T04:28:09;7.88;;;4.65;;
25049;SDS011;13046;49.814;9.918;2022-10-24T04:30:35;6.15;;;4.90;;
25049;SDS011;13046;49.814;9.918;2022-10-24T04:33:01;5.72;;;4.63;;
25049;SDS011;13046;49.814;9.918;2022-10-24T04:35:27;7.88;;;5.93;;
25049;SDS011;13046;49.814;9.918;2022-10-24T04:37:53;9.95;;;4.35;;
25049;SDS011;13046;49.814;9.918;2022-10-24T04:40:19;7.20;;;5.47;;
25049;SDS011;13046;49.814;9.918;2022-10-24T04:42:45;9.77;;;5.72;;
25049;SDS011;13046;49.814;9.918;2022-10-24T04:45:11;7.32;;;5.22;;
25049;SDS011;13046;49.814;9.918;2022-10-24T04:47:37;10.35;;;5.45;;
25049;SDS011;13046;49.814;9.918;2022-10-24T04:50:03;10.48;;;6.13;;
25049;SDS011;13046;49.814;9.918;2022-10-24T04:52:30;8.85;;;5.00;;
25049;SDS011;13046;49.814;9.918;2022-10-24T04:54:56;12.10;;;6.35;;
25049;SDS011;13046;49.814;9.918;2022-10-24T04:57:23;10.20;;;4.40;;
25049;SDS011;13046;49.814;9.918;2022-10-24T04:59:49;9.02;;;4.88;;
25049;SDS011;13046;49.814;9.918;2022-10-24T05:02:15;13.43;;;6.35;;
25049;SDS011;13046;49.814;9.918;2022-10-24T05:04:41;8.15;;;4.50;;
25049;SDS011;13046;49.814;9.918;2022-10-24T05:07:07;8.18;;;6.30;;
25049;SDS011;13046;49.814;9.918;2022-10-24T05:09:33;12.43;;;7.93;;
25049;SDS011;13046;49.814;9.918;2022-10-24T05:11:59;8.13;;;6.68;;
25049;SDS011;13046;49.814;9.918;2022-10-24T05:14:26;8.77;;;6.28;;
25049;SDS011;13046;49.814;9.918;2022-10-24T05:16:52;9.00;;;5.57;;
25049;SDS011;13046;49.814;9.918;2022-10-24T05:19:18;10.57;;;4.40;;
25049;SDS011;13046;49.814;9.918;2022-10-24T05:21:44;6.07;;;4.40;;
25049;SDS011;13046;49.814;9.918;2022-10-24T05:24:10;13.88;;;6.03;;
25049;SDS011;13046;49.814;9.918;2022-10-24T05:26:36;21.25;;;6.32;;
25049;SDS011;13046;49.814;9.918;2022-10-24T05:29:02;10.68;;;6.55;;
25049;SDS011;13046;49.814;9.918;2022-10-24T05:31:29;12.55;;;6.07;;
25049;SDS011;13046;49.814;9.918;2022-10-24T05:33:55;13.32;;;5.30;;
25049;SDS011;13046;49.814;9.918;2022-10-24T05:36:21;16.40;;;5.57;;
25049;SDS011;13046;49.814;9.918;2022-10-24T05:38:47;13.68;;;5.18;;
25049;SDS011;13046;49.814;9.918;2022-10-24T05:41:13;8.82;;;5.72;;
25049;SDS011;13046;49.814;9.918;2022-10-24T05:43:39;9.50;;;5.75;;
25049;SDS011;13046;49.814;9.918;2022-10-24T05:46:05;10.80;;;5.40;;
25049;SDS011;13046;49.814;9.918;2022-10-24T05:48:31;13.93;;;8.77;;
25049;SDS011;13046;49.814;9.918;2022-10-24T05:50:57;16.05;;;10.00;;
25049;SDS011;13046;49.814;9.918;2022-10-24T05:53:24;15.30;;;10.57;;
25049;SDS011;13046;49.814;9.918;2022-10-24T05:55:50;21.55;;;10.68;;
25049;SDS011;13046;49.814;9.918;2022-10-24T05:58:16;16.50;;;9.73;;
25049;SDS011;13046;49.814;9.918;2022-10-24T06:00:46;22.45;;;9.77;;
25049;SDS011;13046;49.814;9.918;2022-10-24T06:03:13;24.70;;;8.95;;
25049;SDS011;13046;49.814;9.918;2022-10-24T06:05:39;14.45;;;9.00;;
25049;SDS011;13046;49.814;9.918;2022-10-24T06:08:05;15.55;;;10.93;;
25049;SDS011;13046;49.814;9.918;2022-10-24T06:10:31;18.08;;;8.68;;
25049;SDS011;13046;49.814;9.918;2022-10-24T06:12:57;20.15;;;11.40;;
25049;SDS011;13046;49.814;9.918;2022-10-24T06:15:23;21.23;;;14.38;;
25049;SDS011;13046;49.814;9.918;2022-10-24T06:17:49;17.10;;;13.63;;
25049;SDS011;13046;49.814;9.918;2022-10-24T06:20:15;15.75;;;10.93;;
25049;SDS011;13046;49.814;9.918;2022-10-24T06:22:41;22.02;;;11.05;;
25049;SDS011;13046;49.814;9.918;2022-10-24T06:25:10;16.77;;;10.57;;
25049;SDS011;13046;49.814;9.918;2022-10-24T06:27:36;20.08;;;9.23;;
25049;SDS011;13046;49.814;9.918;2022-10-24T06:30:03;12.80;;;9.13;;
25049;SDS011;13046;49.814;9.918;2022-10-24T06:32:29;15.10;;;9.50;;
25049;SDS011;13046;49.814;9.918;2022-10-24T06:34:55;10.93;;;9.10;;
25049;SDS011;13046;49.814;9.918;2022-10-24T06:37:21;14.60;;;10.85;;
25049;SDS011;13046;49.814;9.918;2022-10-24T06:39:47;20.65;;;12.73;;
25049;SDS011;13046;49.814;9.918;2022-10-24T06:42:13;13.00;;;11.02;;
25049;SDS011;13046;49.814;9.918;2022-10-24T06:44:39;20.02;;;12.05;;
25049;SDS011;13046;49.814;9.918;2022-10-24T06:47:05;15.52;;;11.88;;
25049;SDS011;13046;49.814;9.918;2022-10-24T06:49:32;15.98;;;12.25;;
25049;SDS011;13046;49.814;9.918;2022-10-24T06:51:58;18.35;;;10.45;;
25049;SDS011;13046;49.814;9.918;2022-10-24T06:54:24;14.77;;;10.05;;
25049;SDS011;13046;49.814;9.918;2022-10-24T06:56:50;12.15;;;8.68;;
25049;SDS011;13046;49.814;9.918;2022-10-24T06:59:16;13.10;;;9.73;;
25049;SDS011;13046;49.814;9.918;2022-10-24T07:01:43;9.40;;;8.00;;
25049;SDS011;13046;49.814;9.918;2022-10-24T07:04:09;12.70;;;8.68;;
25049;SDS011;13046;49.814;9.918;2022-10-24T07:06:35;11.90;;;8.90;;
25049;SDS011;13046;49.814;9.918;2022-10-24T07:09:02;16.58;;;9.20;;
25049;SDS011;13046;49.814;9.918;2022-10-24T07:11:29;21.00;;;8.80;;
25049;SDS011;13046;49.814;9.918;2022-10-24T07:13:55;12.27;;;7.25;;
25049;SDS011;13046;49.814;9.918;2022-10-24T07:16:23;9.82;;;6.50;;
25049;SDS011;13046;49.814;9.918;2022-10-24T07:18:49;13.43;;;6.68;;
25049;SDS011;13046;49.814;9.918;2022-10-24T07:21:20;9.23;;;5.35;;
25049;SDS011;13046;49.814;9.918;2022-10-24T07:23:46;26.40;;;8.18;;
25049;SDS011;13046;49.814;9.918;2022-10-24T07:26:13;12.15;;;6.30;;
25049;SDS011;13046;49.814;9.918;2022-10-24T07:28:39;16.73;;;6.25;;
25049;SDS011;13046;49.814;9.918;2022-10-24T07:31:06;13.70;;;7.32;;
25049;SDS011;13046;49.814;9.918;2022-10-24T07:33:32;9.63;;;6.07;;
25049;SDS011;13046;49.814;9.918;2022-10-24T07:35:58;10.18;;;7.72;;
25049;SDS011;13046;49.814;9.918;2022-10-24T07:38:24;13.18;;;7.82;;
25049;SDS011;13046;49.814;9.918;2022-10-24T07:40:50;12.57;;;7.03;;
25049;SDS011;13046;49.814;9.918;2022-10-24T07:43:17;12.98;;;8.75;;
25049;SDS011;13046;49.814;9.918;2022-10-24T07:45:43;12.63;;;7.70;;
25049;SDS011;13046;49.814;9.918;2022-10-24T07:48:09;16.70;;;8.52;;
25049;SDS011;13046;49.814;9.918;2022-10-24T07:50:40;11.75;;;6.53;;
25049;SDS011;13046;49.814;9.918;2022-10-24T07:53:06;19.33;;;8.88;;
25049;SDS011;13046;49.814;9.918;2022-10-24T07:55:32;14.80;;;8.68;;
25049;SDS011;13046;49.814;9.918;2022-10-24T07:57:58;12.98;;;8.27;;
25049;SDS011;13046;49.814;9.918;2022-10-24T08:00:24;16.42;;;6.88;;
25049;SDS011;13046;49.814;9.918;2022-10-24T08:02:50;15.73;;;7.75;;
25049;SDS011;13046;49.814;9.918;2022-10-24T08:05:16;15.73;;;7.95;;
25049;SDS011;13046;49.814;9.918;2022-10-24T08:07:42;18.27;;;9.00;;
25049;SDS011;13046;49.814;9.918;2022-10-24T08:10:10;12.55;;;8.25;;
25049;SDS011;13046;49.814;9.918;2022-10-24T08:12:37;15.30;;;8.55;;
25049;SDS011;13046;49.814;9.918;2022-10-24T08:15:03;14.07;;;7.90;;
25049;SDS011;13046;49.814;9.918;2022-10-24T08:17:29;11.88;;;6.90;;
25049;SDS011;13046;49.814;9.918;2022-10-24T08:19:55;16.13;;;6.72;;
25049;SDS011;13046;49.814;9.918;2022-10-24T08:22:21;15.57;;;6.75;;
25049;SDS011;13046;49.814;9.918;2022-10-24T08:24:47;16.85;;;8.15;;
25049;SDS011;13046;49.814;9.918;2022-10-24T08:27:13;24.00;;;13.75;;
25049;SDS011;13046;49.814;9.918;2022-10-24T08:29:39;36.90;;;23.98;;
25049;SDS011;13046;49.814;9.918;2022-10-24T08:32:05;13.15;;;6.60;;
25049;SDS011;13046;49.814;9.918;2022-10-24T08:34:32;42.13;;;24.08;;
25049;SDS011;13046;49.814;9.918;2022-10-24T08:36:58;21.65;;;15.20;;
25049;SDS011;13046;49.814;9.918;2022-10-24T08:39:24;19.00;;;8.80;;
25049;SDS011;13046;49.814;9.918;2022-10-24T08:41:55;21.63;;;12.98;;
25049;SDS011;13046;49.814;9.918;2022-10-24T08:44:29;36.83;;;22.50;;
25049;SDS011;13046;49.814;9.918;2022-10-24T08:49:29;23.45;;;15.73;;
25049;SDS011;13046;49.814;9.918;2022-10-24T08:54:25;38.85;;;27.30;;
25049;SDS011;13046;49.814;9.918;2022-10-24T08:56:53;25.30;;;17.83;;
25049;SDS011;13046;49.814;9.918;2022-10-24T08:59:21;39.83;;;24.65;;
25049;SDS011;13046;49.814;9.918;2022-10-24T09:01:53;28.45;;;20.17;;
25049;SDS011;13046;49.814;9.918;2022-10-24T09:04:22;38.23;;;25.53;;
25049;SDS011;13046;49.814;9.918;2022-10-24T09:06:50;25.23;;;20.02;;
25049;SDS011;13046;49.814;9.918;2022-10-24T09:09:18;33.47;;;22.02;;
25049;SDS011;13046;49.814;9.918;2022-10-24T09:11:55;42.88;;;38.38;;
25049;SDS011;13046;49.814;9.918;2022-10-24T09:14:28;29.05;;;25.92;;
25049;SDS011;13046;49.814;9.918;2022-10-24T09:17:36;30.85;;;20.73;;
25049;SDS011;13046;49.814;9.918;2022-10-24T09:22:15;21.98;;;17.08;;
25049;SDS011;13046;49.814;9.918;2022-10-24T09:25:01;23.92;;;13.20;;
25049;SDS011;13046;49.814;9.918;2022-10-24T09:27:29;25.27;;;13.75;;
25049;SDS011;13046;49.814;9.918;2022-10-24T09:29:57;19.35;;;11.05;;
25049;SDS011;13046;49.814;9.918;2022-10-24T09:32:24;18.00;;;11.00;;
25049;SDS011;13046;49.814;9.918;2022-10-24T09:34:54;18.90;;;10.35;;
25049;SDS011;13046;49.814;9.918;2022-10-24T09:37:30;15.80;;;7.38;;
25049;SDS011;13046;49.814;9.918;2022-10-24T09:40:07;9.65;;;5.28;;
25049;SDS011;13046;49.814;9.918;2022-10-24T09:42:33;17.85;;;7.55;;
25049;SDS011;13046;49.814;9.918;2022-10-24T09:45:15;10.82;;;6.15;;
25049;SDS011;13046;49.814;9.918;2022-10-24T09:47:42;12.68;;;6.57;;
25049;SDS011;13046;49.814;9.918;2022-10-24T09:50:20;18.95;;;8.02;;
25049;SDS011;13046;49.814;9.918;2022-10-24T09:52:50;11.52;;;6.85;;
25049;SDS011;13046;49.814;9.918;2022-10-24T09:55:21;10.23;;;8.48;;
25049;SDS011;13046;49.814;9.918;2022-10-24T09:57:52;12.93;;;6.30;;
25049;SDS011;13046;49.814;9.918;2022-10-24T10:00:55;13.65;;;7.85;;
25049;SDS011;13046;49.814;9.918;2022-10-24T10:05:45;17.23;;;7.47;;
25049;SDS011;13046;49.814;9.918;2022-10-24T10:08:15;24.35;;;15.45;;
25049;SDS011;13046;49.814;9.918;2022-10-24T10:10:41;22.83;;;18.92;;
25049;SDS011;13046;49.814;9.918;2022-10-24T10:15:37;19.13;;;11.18;;
25049;SDS011;13046;49.814;9.918;2022-10-24T10:18:26;16.65;;;7.85;;
25049;SDS011;13046;49.814;9.918;2022-10-24T10:20:59;12.05;;;7.45;;
25049;SDS011;13046;49.814;9.918;2022-10-24T10:23:30;12.48;;;7.10;;
25049;SDS011;13046;49.814;9.918;2022-10-24T10:26:10;11.55;;;6.45;;
25049;SDS011;13046;49.814;9.918;2022-10-24T10:28:44;11.68;;;7.05;;
25049;SDS011;13046;49.814;9.918;2022-10-24T10:31:10;20.48;;;8.48;;
25049;SDS011;13046;49.814;9.918;2022-10-24T10:41:52;15.20;;;4.85;;
25049;SDS011;13046;49.814;9.918;2022-10-24T10:47:25;9.23;;;4.18;;
25049;SDS011;13046;49.814;9.918;2022-10-24T10:49:58;13.68;;;4.88;;
25049;SDS011;13046;49.814;9.918;2022-10-24T10:52:29;7.20;;;4.20;;
25049;SDS011;13046;49.814;9.918;2022-10-24T10:55:01;12.30;;;5.35;;
25049;SDS011;13046;49.814;9.918;2022-10-24T10:57:33;7.85;;;4.10;;
25049;SDS011;13046;49.814;9.918;2022-10-24T11:00:10;9.70;;;3.60;;
25049;SDS011;13046;49.814;9.918;2022-10-24T11:05:08;8.00;;;3.70;;
25049;SDS011;13046;49.814;9.918;2022-10-24T11:07:47;6.05;;;3.53;;
25049;SDS011;13046;49.814;9.918;2022-10-24T11:10:17;10.02;;;4.20;;
25049;SDS011;13046;49.814;9.918;2022-10-24T11:12:43;10.98;;;3.88;;
25049;SDS011;13046;49.814;9.918;2022-10-24T11:15:16;11.15;;;3.53;;
25049;SDS011;13046;49.814;9.918;2022-10-24T11:17:51;13.60;;;7.88;;
25049;SDS011;13046;49.814;9.918;2022-10-24T11:22:56;14.68;;;12.40;;
25049;SDS011;13046;49.814;9.918;2022-10-24T11:28:05;10.63;;;6.22;;
25049;SDS011;13046;49.814;9.918;2022-10-24T11:30:53;9.68;;;7.10;;
25049;SDS011;13046;49.814;9.918;2022-10-24T11:33:25;9.45;;;5.97;;
25049;SDS011;13046;49.814;9.918;2022-10-24T11:35:59;12.15;;;4.50;;
25049;SDS011;13046;49.814;9.918;2022-10-24T11:38:26;6.45;;;3.33;;
25049;SDS011;13046;49.814;9.918;2022-10-24T11:40:54;5.55;;;3.05;;
25049;SDS011;13046;49.814;9.918;2022-10-24T11:43:23;6.93;;;3.33;;
25049;SDS011;13046;49.814;9.918;2022-10-24T11:46:03;10.50;;;4.85;;
25049;SDS011;13046;49.814;9.918;2022-10-24T11:48:39;10.13;;;2.65;;
25049;SDS011;13046;49.814;9.918;2022-10-24T11:51:17;5.32;;;2.55;;
25049;SDS011;13046;49.814;9.918;2022-10-24T11:53:52;8.68;;;3.22;;
25049;SDS011;13046;49.814;9.918;2022-10-24T11:56:24;10.98;;;2.40;;
25049;SDS011;13046;49.814;9.918;2022-10-24T11:58:59;9.25;;;3.70;;
25049;SDS011;13046;49.814;9.918;2022-10-24T12:19:11;10.48;;;3.83;;
25049;SDS011;13046;49.814;9.918;2022-10-24T12:21:39;11.65;;;3.00;;
25049;SDS011;13046;49.814;9.918;2022-10-24T12:24:14;7.13;;;2.40;;
25049;SDS011;13046;49.814;9.918;2022-10-24T12:26:51;6.13;;;2.33;;
25049;SDS011;13046;49.814;9.918;2022-10-24T12:29:22;11.18;;;3.22;;
25049;SDS011;13046;49.814;9.918;2022-10-24T12:31:49;15.82;;;5.30;;
25049;SDS011;13046;49.814;9.918;2022-10-24T12:39:49;14.95;;;4.85;;
25049;SDS011;13046;49.814;9.918;2022-10-24T12:49:50;8.93;;;4.60;;
25049;SDS011;13046;49.814;9.918;2022-10-24T12:54:54;9.98;;;3.88;;
25049;SDS011;13046;49.814;9.918;2022-10-24T12:57:25;12.15;;;4.38;;
25049;SDS011;13046;49.814;9.918;2022-10-24T12:59:54;9.57;;;3.45;;
25049;SDS011;13046;49.814;9.918;2022-10-24T13:02:25;8.50;;;4.07;;
25049;SDS011;13046;49.814;9.918;2022-10-24T13:04:56;8.35;;;3.65;;
25049;SDS011;13046;49.814;9.918;2022-10-24T13:07:29;8.75;;;3.40;;
25049;SDS011;13046;49.814;9.918;2022-10-24T13:10:13;8.43;;;3.42;;
25049;SDS011;13046;49.814;9.918;2022-10-24T13:20:36;9.63;;;3.65;;
25049;SDS011;13046;49.814;9.918;2022-10-24T13:23:17;9.20;;;3.55;;
25049;SDS011;13046;49.814;9.918;2022-10-24T13:25:45;10.50;;;3.20;;
25049;SDS011;13046;49.814;9.918;2022-10-24T13:30:49;11.50;;;3.92;;
25049;SDS011;13046;49.814;9.918;2022-10-24T13:38:59;7.93;;;3.15;;
25049;SDS011;13046;49.814;9.918;2022-10-24T13:41:27;9.85;;;3.67;;
25049;SDS011;13046;49.814;9.918;2022-10-24T13:43:55;11.02;;;2.88;;
25049;SDS011;13046;49.814;9.918;2022-10-24T13:46:29;11.00;;;3.47;;
25049;SDS011;13046;49.814;9.918;2022-10-24T13:48:55;9.83;;;3.50;;
25049;SDS011;13046;49.814;9.918;2022-10-24T13:51:23;8.02;;;2.95;;
25049;SDS011;13046;49.814;9.918;2022-10-24T13:53:58;12.25;;;4.20;;
25049;SDS011;13046;49.814;9.918;2022-10-24T13:56:25;16.95;;;4.93;;
25049;SDS011;13046;49.814;9.918;2022-10-24T13:58:52;6.53;;;2.75;;
25049;SDS011;13046;49.814;9.918;2022-10-24T14:01:19;12.85;;;3.38;;
25049;SDS011;13046;49.814;9.918;2022-10-24T14:03:46;6.63;;;2.20;;
25049;SDS011;13046;49.814;9.918;2022-10-24T14:06:12;8.77;;;3.05;;
25049;SDS011;13046;49.814;9.918;2022-10-24T14:08:48;7.38;;;2.45;;
25049;SDS011;13046;49.814;9.918;2022-10-24T14:11:16;7.50;;;2.83;;
25049;SDS011;13046;49.814;9.918;2022-10-24T14:13:44;9.82;;;4.78;;
25049;SDS011;13046;49.814;9.918;2022-10-24T14:16:11;10.82;;;4.50;;
25049;SDS011;13046;49.814;9.918;2022-10-24T14:18:38;9.20;;;3.05;;
25049;SDS011;13046;49.814;9.918;2022-10-24T14:21:12;7.35;;;2.90;;
25049;SDS011;13046;49.814;9.918;2022-10-24T14:23:41;7.57;;;3.63;;
25049;SDS011;13046;49.814;9.918;2022-10-24T14:26:12;9.35;;;4.75;;
25049;SDS011;13046;49.814;9.918;2022-10-24T14:28:43;10.23;;;4.05;;
25049;SDS011;13046;49.814;9.918;2022-10-24T14:33:52;5.25;;;3.83;;
25049;SDS011;13046;49.814;9.918;2022-10-24T14:36:20;7.95;;;4.28;;
25049;SDS011;13046;49.814;9.918;2022-10-24T14:38:47;10.75;;;3.45;;
25049;SDS011;13046;49.814;9.918;2022-10-24T14:41:14;14.93;;;4.45;;
25049;SDS011;13046;49.814;9.918;2022-10-24T14:43:41;10.13;;;3.00;;
25049;SDS011;13046;49.814;9.918;2022-10-24T14:48:38;6.35;;;2.88;;
25049;SDS011;13046;49.814;9.918;2022-10-24T14:51:27;13.10;;;4.28;;
25049;SDS011;13046;49.814;9.918;2022-10-24T14:53:52;8.55;;;3.15;;
25049;SDS011;13046;49.814;9.918;2022-10-24T14:58:44;5.20;;;2.90;;
25049;SDS011;13046;49.814;9.918;2022-10-24T15:01:17;8.82;;;3.25;;
25049;SDS011;13046;49.814;9.918;2022-10-24T15:06:20;7.10;;;2.55;;
25049;SDS011;13046;49.814;9.918;2022-10-24T15:08:58;12.65;;;4.10;;
25049;SDS011;13046;49.814;9.918;2022-10-24T15:11:25;9.98;;;3.20;;
25049;SDS011;13046;49.814;9.918;2022-10-24T15:13:52;7.55;;;2.67;;
25049;SDS011;13046;49.814;9.918;2022-10-24T15:16:24;7.57;;;3.60;;
25049;SDS011;13046;49.814;9.918;2022-10-24T15:18:51;12.45;;;4.35;;
25049;SDS011;13046;49.814;9.918;2022-10-24T15:21:19;6.18;;;2.60;;
25049;SDS011;13046;49.814;9.918;2022-10-24T15:23:47;11.73;;;3.70;;
25049;SDS011;13046;49.814;9.918;2022-10-24T15:26:17;8.43;;;3.05;;
25049;SDS011;13046;49.814;9.918;2022-10-24T15:28:48;6.85;;;2.92;;
25049;SDS011;13046;49.814;9.918;2022-10-24T15:31:19;6.40;;;3.30;;
25049;SDS011;13046;49.814;9.918;2022-10-24T15:33:46;7.53;;;4.05;;
25049;SDS011;13046;49.814;9.918;2022-10-24T15:36:22;13.40;;;3.40;;
25049;SDS011;13046;49.814;9.918;2022-10-24T15:38:55;8.00;;;3.58;;
25049;SDS011;13046;49.814;9.918;2022-10-24T15:41:22;8.00;;;3.13;;
25049;SDS011;13046;49.814;9.918;2022-10-24T15:43:48;8.07;;;3.83;;
25049;SDS011;13046;49.814;9.918;2022-10-24T15:46:15;11.27;;;3.38;;
25049;SDS011;13046;49.814;9.918;2022-10-24T15:48:41;6.40;;;2.80;;
25049;SDS011;13046;49.814;9.918;2022-10-24T15:51:07;9.30;;;3.35;;
25049;SDS011;13046;49.814;9.918;2022-10-24T15:53:33;7.68;;;3.88;;
25049;SDS011;13046;49.814;9.918;2022-10-24T15:55:59;6.68;;;3.65;;
25049;SDS011;13046;49.814;9.918;2022-10-24T15:58:25;10.18;;;3.33;;
25049;SDS011;13046;49.814;9.918;2022-10-24T16:00:52;10.50;;;3.70;;
25049;SDS011;13046;49.814;9.918;2022-10-24T16:03:20;13.75;;;4.55;;
25049;SDS011;13046;49.814;9.918;2022-10-24T16:05:51;9.13;;;3.10;;
25049;SDS011;13046;49.814;9.918;2022-10-24T16:08:18;5.10;;;3.17;;
25049;SDS011;13046;49.814;9.918;2022-10-24T16:10:46;45.83;;;28.13;;
25049;SDS011;13046;49.814;9.918;2022-10-24T16:13:13;14.32;;;9.50;;
25049;SDS011;13046;49.814;9.918;2022-10-24T16:15:39;8.35;;;3.40;;
25049;SDS011;13046;49.814;9.918;2022-10-24T16:18:06;20.08;;;4.55;;
25049;SDS011;13046;49.814;9.918;2022-10-24T16:20:35;8.93;;;3.53;;
25049;SDS011;13046;49.814;9.918;2022-10-24T16:23:01;6.55;;;3.42;;
25049;SDS011;13046;49.814;9.918;2022-10-24T16:25:29;11.05;;;4.47;;
25049;SDS011;13046;49.814;9.918;2022-10-24T16:27:55;8.60;;;3.92;;
25049;SDS011;13046;49.814;9.918;2022-10-24T16:30:23;7.75;;;3.85;;
25049;SDS011;13046;49.814;9.918;2022-10-24T16:32:50;9.68;;;3.90;;
25049;SDS011;13046;49.814;9.918;2022-10-24T16:35:20;7.43;;;4.80;;